KTYR/TYR METAR and TAF weather

Enter ICAO airport designator
Station Type Date Time Source
KTYR METAR 2022/11/26 08:53 UTC NOAA

KTYR 260853Z AUTO 08009KT 4SM BR OVC002 13/12 A2997 RMK AO2 RAB40E53 SLP146 P0000 60001 T01330122 55025


Station Type Date Time Source
KTYR Decoded METAR 2022/11/26 08:53 UTC NOAA

TYLER POUNDS FIELDS, TX, United States (KTYR) 32-21N 095-24W 165M
Nov 26, 2022 - 03:53 AM EST / 2022.11.26 0853 UTC
Wind: from the E (080 degrees) at 10 MPH (9 KT):0
Visibility: 4 mile(s):0
Sky conditions: overcast
Weather: mist
Precipitation last hour: A trace
Temperature: 55.9 F (13.3 C)
Dew Point: 54.0 F (12.2 C)
Relative Humidity: 93%
Pressure (altimeter): 29.97 in. Hg (1014 hPa)
Pressure tendency: 0.07 inches (2.5 hPa) lower than three hours ago
ob: KTYR 260853Z AUTO 08009KT 4SM BR OVC002 13/12 A2997 RMK AO2 RAB40E53 SLP146 P0000 60001 T01330122 55025
cycle: 9

Station Type Date Time Source
KTYR TAF 2022/11/26 06:42 UTC NOAA

TAF KTYR 260539Z 2606/2706 06006KT 3SM BR OVC005
FM260800 07010KT 3SM -RA BR OVC007
FM261200 08007KT 4SM -RA BR OVC005
FM261700 15010KT P6SM -RA OVC007
FM262000 23013G15KT P6SM OVC015
FM270300 23015G20KT P6SM OVC025

Example: see airport list